Time;durP1;ratioP1;P1;durP2;ratioP2;P2;SDS_P1;SDS_P2;PMS_P1;PMS_P2;Temp;Humidity;BMP_temperature;BMP_pressure;BME280_temperature;BME280_humidity;BME280_pressure;Samples;Min_cycle;Max_cycle;Signal;HPM_P1;HPM_P2
2023/01/14 00:01:47;;;;;;;37.03;5.80;;;7.00;99.90;;;;;;5097326;28;20057;-79
2023/01/14 00:04:14;;;;;;;51.63;6.43;;;6.80;99.90;;;;;;5096624;28;20047;-76
2023/01/14 00:06:42;;;;;;;43.03;5.30;;;6.80;99.90;;;;;;5115234;28;20054;-79
2023/01/14 00:09:13;;;;;;;35.33;5.05;;;6.80;99.90;;;;;;5115111;28;20051;-78
2023/01/14 00:11:47;;;;;;;54.17;6.05;;;6.90;99.90;;;;;;5096136;28;20048;-80
2023/01/14 00:14:23;;;;;;;47.88;5.57;;;6.80;99.90;;;;;;5097683;28;20062;-79
2023/01/14 00:16:52;;;;;;;51.65;5.78;;;6.80;99.90;;;;;;5097376;28;20052;-79
2023/01/14 00:19:20;;;;;;;48.70;4.90;;;6.90;99.90;;;;;;5113701;28;20044;-76
2023/01/14 00:21:48;;;;;;;49.70;5.32;;;6.90;99.90;;;;;;5115093;28;20043;-78
2023/01/14 00:24:21;;;;;;;42.72;5.30;;;7.60;99.90;;;;;;5078955;28;20035;-79
2023/01/14 00:26:53;;;;;;;41.20;5.47;;;7.50;99.90;;;;;;5115530;28;20054;-78
2023/01/14 00:29:31;;;;;;;43.67;4.80;;;6.90;99.90;;;;;;5080876;28;20040;-79
2023/01/14 00:32:00;;;;;;;40.42;5.28;;;7.00;99.90;;;;;;5096176;28;20054;-77
2023/01/14 00:34:29;;;;;;;43.47;4.90;;;9.00;99.90;;;;;;5096956;28;20043;-80
2023/01/14 00:36:57;;;;;;;45.60;5.03;;;7.00;99.90;;;;;;5115206;28;20062;-79
2023/01/14 00:39:25;;;;;;;39.28;5.40;;;7.70;99.90;;;;;;5095842;28;20044;-77
2023/01/14 00:41:53;;;;;;;44.03;5.43;;;7.10;99.90;;;;;;5114716;28;20066;-76
2023/01/14 00:44:20;;;;;;;42.55;5.45;;;7.10;99.90;;;;;;5113614;28;20049;-80
2023/01/14 00:46:50;;;;;;;47.63;5.22;;;7.10;99.90;;;;;;5114785;28;20047;-77
2023/01/14 00:49:20;;;;;;;44.17;5.88;;;8.30;99.90;;;;;;5096790;28;20051;-79
2023/01/14 00:51:48;;;;;;;42.35;5.00;;;7.20;99.90;;;;;;5099896;28;20048;-77
2023/01/14 00:54:16;;;;;;;52.20;5.78;;;7.40;99.90;;;;;;5100662;28;20051;-78
2023/01/14 00:56:44;;;;;;;49.97;5.57;;;7.20;99.90;;;;;;5084049;28;20048;-80
2023/01/14 00:59:21;;;;;;;52.78;5.22;;;7.30;99.90;;;;;;5082886;28;20047;-79
2023/01/14 01:01:52;;;;;;;45.42;5.13;;;7.40;99.90;;;;;;5100460;28;20055;-78
2023/01/14 01:04:19;;;;;;;50.72;5.22;;;7.50;99.90;;;;;;5117314;28;20048;-80
2023/01/14 01:06:47;;;;;;;46.85;5.20;;;7.30;99.90;;;;;;5118477;28;20044;-79
2023/01/14 01:09:14;;;;;;;43.67;5.03;;;7.40;99.90;;;;;;5118700;28;20051;-77
2023/01/14 01:11:42;;;;;;;40.72;4.80;;;7.40;99.90;;;;;;5082588;28;20476;-77
2023/01/14 01:14:10;;;;;;;46.30;5.65;;;7.40;99.90;;;;;;5118101;28;20052;-78
2023/01/14 01:16:37;;;;;;;43.05;4.90;;;9.40;99.90;;;;;;5100910;28;20051;-78
2023/01/14 01:19:06;;;;;;;47.08;5.20;;;7.40;99.90;;;;;;5116928;28;20047;-77
2023/01/14 01:21:33;;;;;;;45.80;4.90;;;7.50;99.90;;;;;;5100601;28;20054;-77
2023/01/14 01:24:01;;;;;;;42.38;5.15;;;7.80;99.90;;;;;;5099038;28;20039;-78
2023/01/14 01:26:28;;;;;;;39.67;5.00;;;7.50;99.90;;;;;;5117877;28;20040;-79
2023/01/14 01:28:57;;;;;;;42.50;4.60;;;7.60;99.90;;;;;;5100416;28;20066;-78
2023/01/14 01:31:27;;;;;;;47.28;5.00;;;7.70;99.90;;;;;;5098846;28;20051;-77
2023/01/14 01:33:55;;;;;;;51.65;5.40;;;7.60;99.90;;;;;;5100262;28;20063;-79
2023/01/14 01:36:25;;;;;;;;;;;7.70;99.90;;;;;;5100607;28;20044;-79
2023/01/14 01:38:52;;;;;;;42.85;4.20;;;7.70;99.90;;;;;;5116661;28;19919;-78
2023/01/14 01:41:26;;;;;;;47.58;5.68;;;9.00;99.90;;;;;;5099664;28;20129;-77
2023/01/14 01:43:59;;;;;;;43.75;5.10;;;7.80;99.90;;;;;;5116959;28;20054;-78
2023/01/14 01:46:28;;;;;;;56.22;5.43;;;7.90;99.90;;;;;;5117666;28;20341;-79
2023/01/14 01:49:27;;;;;;;43.03;4.80;;;8.10;99.90;;;;;;5117810;28;20056;-80
2023/01/14 01:52:13;;;;;;;42.85;5.47;;;8.00;99.90;;;;;;5097999;28;20054;-78
2023/01/14 01:55:02;;;;;;;57.05;5.30;;;8.00;99.90;;;;;;5099960;28;20039;-79
2023/01/14 01:57:30;;;;;;;64.05;5.72;;;8.10;99.90;;;;;;5116589;28;20047;-77
2023/01/14 02:00:03;;;;;;;44.85;5.32;;;8.60;99.90;;;;;;5099388;28;20039;-77
2023/01/14 02:02:38;;;;;;;50.03;5.18;;;8.20;99.90;;;;;;5099138;28;20048;-77
2023/01/14 02:05:07;;;;;;;54.50;5.80;;;8.50;99.90;;;;;;5116208;28;20035;-77
2023/01/14 02:07:35;;;;;;;58.17;5.35;;;8.20;99.90;;;;;;5088492;28;20055;-79
2023/01/14 02:10:05;;;;;;;51.45;5.68;;;8.30;99.90;;;;;;5062502;28;20349;-79
2023/01/14 02:13:01;;;;;;;51.17;6.07;;;8.30;99.90;;;;;;5061126;28;20134;-79
2023/01/14 02:15:38;;;;;;;51.72;5.07;;;8.30;99.90;;;;;;5079511;28;20141;-78
2023/01/14 02:18:52;;;;;;;54.65;5.75;;;8.30;99.90;;;;;;5077850;28;20044;-79
2023/01/14 02:21:27;;;;;;;46.58;4.78;;;8.70;99.90;;;;;;5077962;28;20357;-79
2023/01/14 02:24:46;;;;;;;40.75;4.82;;;8.20;99.90;;;;;;5077869;28;20036;-79
2023/01/14 02:27:36;;;;;;;48.25;4.43;;;8.30;99.90;;;;;;5036417;28;20064;-80
2023/01/14 02:30:06;;;;;;;47.85;5.07;;;8.30;99.90;;;;;;5078847;28;20044;-81
2023/01/14 02:33:11;;;;;;;46.17;4.90;;;8.30;99.90;;;;;;5077481;28;20048;-77
2023/01/14 02:35:49;;;;;;;46.17;5.13;;;8.30;99.90;;;;;;5078702;28;20056;-76
2023/01/14 02:38:22;;;;;;;35.53;4.40;;;9.20;99.90;;;;;;5061400;28;20150;-79
2023/01/14 02:41:08;;;;;;;38.72;4.78;;;8.30;99.90;;;;;;5078739;28;20048;-78
2023/01/14 02:44:10;;;;;;;44.13;4.63;;;8.30;99.90;;;;;;5045341;28;20055;-80
2023/01/14 02:46:58;;;;;;;39.08;4.63;;;9.10;99.90;;;;;;5062110;28;20044;-79
2023/01/14 02:49:32;;;;;;;30.25;3.95;;;8.30;99.90;;;;;;5078458;28;20036;-77
2023/01/14 02:52:05;;;;;;;32.25;4.85;;;8.30;99.90;;;;;;5077132;28;20043;-80
2023/01/14 02:54:34;;;;;;;31.55;3.67;;;8.60;99.90;;;;;;5078247;28;20055;-78
2023/01/14 02:57:30;;;;;;;31.55;4.00;;;8.40;99.90;;;;;;5096276;28;20071;-81
2023/01/14 03:00:26;;;;;;;31.80;4.03;;;8.40;99.90;;;;;;5061702;28;20063;-78
2023/01/14 03:03:16;;;;;;;34.60;3.97;;;8.40;99.90;;;;;;5078387;28;20044;-78
2023/01/14 03:06:07;;;;;;;33.63;3.95;;;8.40;99.90;;;;;;5060300;28;20055;-77
2023/01/14 03:08:52;;;;;;;26.05;3.63;;;8.40;99.90;;;;;;5115112;28;20051;-78
2023/01/14 03:11:50;;;;;;;24.58;3.45;;;8.40;99.90;;;;;;5096995;28;20042;-76
2023/01/14 03:14:23;;;;;;;26.08;3.65;;;8.70;99.90;;;;;;5098220;28;20043;-79
2023/01/14 03:17:15;;;;;;;31.65;3.40;;;8.90;99.90;;;;;;5098251;28;20054;-81
2023/01/14 03:19:50;;;;;;;26.52;3.00;;;8.40;99.90;;;;;;5097870;28;20043;-77
2023/01/14 03:22:18;;;;;;;32.13;3.08;;;8.50;99.90;;;;;;5081533;28;20047;-80
2023/01/14 03:24:46;;;;;;;27.05;3.63;;;9.80;99.90;;;;;;5096835;28;20054;-79
2023/01/14 03:27:23;;;;;;;19.80;2.72;;;8.40;99.90;;;;;;5098167;28;20035;-76
2023/01/14 03:29:56;;;;;;;27.52;2.90;;;8.50;99.90;;;;;;5098272;28;20345;-76
2023/01/14 03:32:34;;;;;;;12.93;2.13;;;8.40;99.90;;;;;;5096957;28;20058;-78
2023/01/14 03:35:07;;;;;;;15.15;2.30;;;8.40;99.90;;;;;;5098030;28;20043;-78
2023/01/14 03:37:37;;;;;;;28.27;2.72;;;8.50;99.90;;;;;;5080002;28;20047;-78
2023/01/14 03:40:08;;;;;;;20.50;2.47;;;8.40;99.90;;;;;;5115287;28;20043;-76
2023/01/14 03:42:42;;;;;;;20.95;2.67;;;8.40;99.90;;;;;;5116007;28;20039;-79
2023/01/14 03:45:29;;;;;;;16.50;2.45;;;9.00;99.90;;;;;;5114466;28;20043;-77
2023/01/14 03:47:57;;;;;;;15.80;2.13;;;8.40;99.90;;;;;;5097602;28;20055;-78
2023/01/14 03:50:33;;;;;;;18.45;2.05;;;8.80;99.90;;;;;;5080873;28;20044;-76
2023/01/14 03:53:35;;;;;;;10.95;1.63;;;8.40;99.90;;;;;;5115588;28;20043;-79
2023/01/14 03:56:12;;;;;;;6.40;1.65;;;8.40;99.90;;;;;;5115376;28;20043;-79
2023/01/14 03:58:44;;;;;;;15.18;1.95;;;8.40;99.90;;;;;;5096179;28;20040;-77
2023/01/14 04:01:27;;;;;;;15.85;1.88;;;8.40;99.90;;;;;;5115842;28;20054;-77
2023/01/14 04:03:56;;;;;;;16.77;1.60;;;8.40;99.90;;;;;;5096603;28;20043;-77
2023/01/14 04:06:24;;;;;;;11.27;1.77;;;8.40;99.90;;;;;;5115034;28;20047;-80
2023/01/14 04:08:51;;;;;;;11.02;1.75;;;8.50;99.90;;;;;;5115292;28;20047;-80
2023/01/14 04:11:19;;;;;;;9.35;1.30;;;8.40;99.90;;;;;;5113848;28;20050;-77
2023/01/14 04:16:33;;;;;;;9.55;1.55;;;8.50;99.90;;;;;;5115521;28;20054;-75
2023/01/14 04:19:01;;;;;;;10.88;1.40;;;8.40;99.90;;;;;;5113918;28;20039;-77
2023/01/14 04:21:29;;;;;;;13.10;1.75;;;8.40;99.90;;;;;;5097210;28;20051;-75
2023/01/14 04:23:56;;;;;;;8.30;1.20;;;8.40;99.90;;;;;;5113885;28;20035;-76
2023/01/14 04:26:24;;;;;;;13.65;1.80;;;8.40;99.90;;;;;;5118620;28;20040;-77
2023/01/14 04:28:51;;;;;;;11.77;1.40;;;8.50;99.90;;;;;;5119598;28;20059;-75
2023/01/14 04:31:18;;;;;;;8.95;1.33;;;8.40;99.90;;;;;;5100332;28;20062;-78
2023/01/14 04:33:46;;;;;;;9.45;1.35;;;8.50;99.90;;;;;;5119026;28;20047;-79
2023/01/14 04:36:14;;;;;;;6.88;1.33;;;8.50;99.90;;;;;;5101221;28;20047;-74
2023/01/14 04:38:41;;;;;;;6.50;1.30;;;8.40;99.90;;;;;;5117861;28;20055;-78
2023/01/14 04:42:26;;;;;;;10.90;1.55;;;8.50;99.90;;;;;;5118804;28;20046;-78
2023/01/14 04:43:59;;;;;;;9.88;1.10;;;8.50;99.90;;;;;;5099994;28;20488;-77
2023/01/14 04:46:27;;;;;;;12.07;1.65;;;8.50;99.90;;;;;;5118708;28;20044;-80
2023/01/14 04:48:55;;;;;;;5.65;1.25;;;8.50;99.90;;;;;;5119425;28;20052;-77
2023/01/14 04:51:22;;;;;;;7.00;1.58;;;8.50;99.90;;;;;;5099742;28;20058;-76
2023/01/14 04:53:50;;;;;;;7.13;1.30;;;8.50;99.90;;;;;;5118621;28;20044;-76
2023/01/14 04:56:17;;;;;;;11.77;1.30;;;9.70;99.90;;;;;;5118718;28;20055;-76
2023/01/14 04:58:45;;;;;;;7.03;1.23;;;8.80;99.90;;;;;;5117423;28;20040;-78
2023/01/14 05:01:12;;;;;;;7.47;1.05;;;9.40;99.90;;;;;;5100666;28;20369;-76
2023/01/14 05:03:40;;;;;;;5.40;1.10;;;8.60;99.90;;;;;;5118670;28;20054;-77
2023/01/14 05:06:07;;;;;;;10.13;1.30;;;8.60;99.90;;;;;;5099498;28;20379;-78
2023/01/14 05:08:35;;;;;;;7.97;1.20;;;8.80;99.90;;;;;;5118247;28;20040;-78
2023/01/14 05:11:02;;;;;;;10.43;1.30;;;8.70;99.90;;;;;;5117258;28;20488;-77
2023/01/14 05:13:30;;;;;;;4.53;0.93;;;8.70;99.90;;;;;;5118253;28;20048;-80
2023/01/14 05:16:02;;;;;;;6.68;0.75;;;8.70;99.90;;;;;;5118209;28;20054;-75
2023/01/14 05:18:30;;;;;;;4.32;0.70;;;9.00;99.90;;;;;;5099667;28;20056;-77
2023/01/14 05:20:57;;;;;;;5.50;0.90;;;8.80;99.90;;;;;;5118048;28;20035;-77
2023/01/14 05:23:25;;;;;;;7.68;0.95;;;8.70;99.90;;;;;;5117985;28;20054;-77
2023/01/14 05:25:52;;;;;;;5.30;0.75;;;9.00;99.90;;;;;;5082415;28;20380;-78
2023/01/14 05:28:20;;;;;;;8.68;1.10;;;9.10;99.90;;;;;;5118182;28;20040;-78
2023/01/14 05:30:48;;;;;;;5.82;1.00;;;9.50;99.90;;;;;;5116766;28;20048;-77
2023/01/14 05:33:16;;;;;;;8.05;1.23;;;8.90;99.90;;;;;;5118189;28;20044;-75
2023/01/14 05:35:43;;;;;;;5.80;0.63;;;8.90;99.90;;;;;;5117573;28;20043;-79
2023/01/14 05:38:11;;;;;;;9.98;1.23;;;9.00;99.90;;;;;;5116039;28;20048;-77
2023/01/14 05:40:42;;;;;;;10.18;1.02;;;9.10;99.90;;;;;;5099695;28;20047;-79
2023/01/14 05:45:57;;;;;;;8.57;1.10;;;9.10;99.90;;;;;;5116702;28;20048;-77
2023/01/14 05:48:26;;;;;;;7.93;0.95;;;9.10;99.90;;;;;;5117633;28;20043;-77
2023/01/14 05:50:54;;;;;;;;;;;9.20;99.90;;;;;;5099097;28;20055;-77
2023/01/14 05:53:22;;;;;;;11.13;1.17;;;9.10;99.90;;;;;;5082877;28;19920;-78
2023/01/14 05:55:49;;;;;;;;;;;9.10;99.90;;;;;;5083329;28;20051;-78
2023/01/14 05:58:18;;;;;;;8.50;1.20;;;9.10;99.90;;;;;;5116287;28;19920;-75
2023/01/14 06:06:29;;;;;;;10.98;1.25;;;9.20;99.90;;;;;;5100062;28;20472;-77
2023/01/14 06:09:09;;;;;;;15.63;1.73;;;9.20;99.90;;;;;;5117101;28;20051;-75
2023/01/14 06:11:39;;;;;;;17.17;1.45;;;9.20;99.90;;;;;;5116235;28;20467;-79
2023/01/14 06:14:07;;;;;;;15.13;1.38;;;9.20;99.90;;;;;;5117309;28;20044;-75
2023/01/14 06:16:41;;;;;;;11.88;1.65;;;9.20;99.90;;;;;;5117096;28;20051;-78
2023/01/14 06:19:11;;;;;;;16.85;1.70;;;9.30;99.90;;;;;;5115951;28;20047;-76
2023/01/14 06:21:39;;;;;;;14.13;1.58;;;9.30;99.90;;;;;;5117237;28;20044;-79
2023/01/14 06:24:07;;;;;;;11.32;1.73;;;9.30;99.90;;;;;;5116170;28;20359;-79
2023/01/14 06:26:35;;;;;;;;;;;9.30;99.90;;;;;;5099360;28;20062;-79
2023/01/14 06:29:10;;;;;;;16.95;1.90;;;9.30;99.90;;;;;;5117438;28;19920;-77
2023/01/14 06:31:39;;;;;;;14.77;2.47;;;9.30;99.90;;;;;;5115657;28;20058;-76
2023/01/14 06:34:07;;;;;;;19.45;1.95;;;9.30;99.90;;;;;;5116831;28;20039;-78
2023/01/14 06:36:36;;;;;;;25.27;2.65;;;10.00;99.90;;;;;;5098982;28;20050;-77
2023/01/14 06:39:04;;;;;;;22.38;2.45;;;9.30;99.90;;;;;;5097612;28;20040;-77
2023/01/14 06:41:32;;;;;;;22.60;2.30;;;9.20;99.90;;;;;;5098596;28;20048;-78
2023/01/14 06:43:59;;;;;;;24.13;2.60;;;9.80;99.90;;;;;;5115401;28;20040;-76
2023/01/14 06:46:27;;;;;;;26.60;2.20;;;9.20;99.90;;;;;;5116589;28;20479;-78
2023/01/14 06:48:54;;;;;;;24.10;2.42;;;9.30;99.90;;;;;;5116101;28;20047;-79
2023/01/14 06:51:22;;;;;;;23.00;2.47;;;9.20;99.90;;;;;;5097462;28;20186;-77
2023/01/14 06:53:49;;;;;;;23.38;2.30;;;9.20;99.90;;;;;;5116448;28;20050;-81
2023/01/14 06:56:17;;;;;;;26.73;2.28;;;9.20;99.90;;;;;;5116300;28;20118;-78
2023/01/14 06:58:48;;;;;;;;;;;10.20;99.90;;;;;;5115711;28;20052;-78
2023/01/14 07:01:17;;;;;;;23.08;2.83;;;9.20;99.90;;;;;;5116322;28;20344;-79
2023/01/14 07:03:45;;;;;;;23.02;2.50;;;9.20;99.90;;;;;;5065152;28;20039;-78
2023/01/14 07:06:12;;;;;;;22.15;2.38;;;9.20;99.90;;;;;;5115086;28;20058;-81
2023/01/14 07:08:40;;;;;;;25.85;2.33;;;9.10;99.90;;;;;;5115924;28;20043;-75
2023/01/14 07:11:08;;;;;;;27.52;2.97;;;9.10;99.90;;;;;;5097128;28;20460;-74
2023/01/14 07:13:35;;;;;;;24.08;2.90;;;9.30;99.90;;;;;;5115919;28;20047;-79
2023/01/14 07:16:03;;;;;;;18.88;1.98;;;9.10;99.90;;;;;;5115280;28;20051;-77
2023/01/14 07:18:30;;;;;;;20.42;2.80;;;9.10;99.90;;;;;;5114738;28;20054;-77
2023/01/14 07:20:59;;;;;;;14.23;1.65;;;9.20;99.90;;;;;;5115653;28;20528;-77
2023/01/14 07:23:27;;;;;;;22.80;2.30;;;9.20;99.90;;;;;;5115711;28;20333;-77
2023/01/14 07:25:55;;;;;;;;;;;9.80;99.90;;;;;;5115233;28;20051;-78
2023/01/14 07:28:27;;;;;;;18.42;2.20;;;9.20;99.90;;;;;;5097913;28;19919;-77
2023/01/14 07:30:56;;;;;;;18.42;2.22;;;9.20;99.90;;;;;;5114583;28;20372;-76
2023/01/14 07:33:23;;;;;;;22.13;2.38;;;9.30;99.90;;;;;;5097980;28;20051;-76
2023/01/14 07:35:52;;;;;;;19.27;2.30;;;9.60;99.90;;;;;;5115535;28;20039;-79
2023/01/14 07:38:20;;;;;;;21.05;2.05;;;9.80;99.90;;;;;;5096585;28;20051;-79
2023/01/14 07:40:48;;;;;;;26.83;2.60;;;9.20;99.90;;;;;;5097762;28;20499;-77
2023/01/14 07:43:16;;;;;;;21.20;1.98;;;9.30;99.90;;;;;;5115449;28;20365;-77
2023/01/14 07:45:44;;;;;;;12.70;2.10;;;9.50;99.90;;;;;;5098473;28;20460;-76
2023/01/14 07:48:11;;;;;;;22.45;2.22;;;10.70;99.90;;;;;;5087437;28;20054;-77
2023/01/14 07:50:39;;;;;;;20.67;1.90;;;9.40;99.90;;;;;;5114363;28;20036;-79
2023/01/14 07:53:06;;;;;;;9.13;1.30;;;9.40;99.90;;;;;;5115339;28;20051;-76
2023/01/14 07:55:35;;;;;;;29.15;2.65;;;9.90;99.90;;;;;;5115501;28;20460;-79
2023/01/14 07:58:02;;;;;;;11.57;1.42;;;9.50;99.90;;;;;;5096503;28;20048;-76
2023/01/14 08:00:30;;;;;;;17.13;1.73;;;9.90;99.90;;;;;;5114765;28;20039;-76
2023/01/14 08:02:57;;;;;;;18.63;1.50;;;9.60;99.90;;;;;;5115833;28;20036;-79
2023/01/14 08:05:25;;;;;;;11.52;1.55;;;9.60;99.90;;;;;;5079778;28;20475;-80
2023/01/14 08:07:54;;;;;;;16.63;1.92;;;9.60;99.90;;;;;;5097224;28;20475;-75
2023/01/14 08:10:21;;;;;;;20.23;1.88;;;9.70;99.90;;;;;;5080633;28;20059;-78
2023/01/14 08:12:49;;;;;;;16.85;1.55;;;9.70;99.90;;;;;;5113880;28;20491;-80
2023/01/14 08:15:18;;;;;;;15.52;1.42;;;9.70;99.90;;;;;;5097226;28;20050;-75
2023/01/14 08:17:45;;;;;;;;;;;9.80;99.90;;;;;;5114286;28;20043;-77
2023/01/14 08:20:13;;;;;;;15.80;1.73;;;9.80;99.90;;;;;;5114950;28;20367;-76
2023/01/14 08:22:41;;;;;;;17.08;1.75;;;9.90;99.90;;;;;;5097331;28;20062;-79
2023/01/14 08:25:08;;;;;;;14.90;1.85;;;9.90;99.90;;;;;;5114301;28;20044;-78
2023/01/14 08:27:36;;;;;;;13.60;1.63;;;9.90;99.90;;;;;;5115084;28;20039;-78
2023/01/14 08:30:04;;;;;;;17.02;1.67;;;10.00;99.90;;;;;;5096792;28;20052;-79
2023/01/14 08:32:34;;;;;;;12.90;1.48;;;10.10;99.90;;;;;;5113389;28;20052;-78
2023/01/14 08:35:02;;;;;;;11.70;1.42;;;10.30;99.90;;;;;;5080301;28;20494;-81
2023/01/14 08:37:29;;;;;;;11.05;1.23;;;10.20;99.90;;;;;;5113635;28;20047;-78
2023/01/14 08:39:57;;;;;;;18.75;1.92;;;10.30;99.90;;;;;;5096668;28;20047;-79
2023/01/14 08:42:24;;;;;;;10.80;1.50;;;10.30;99.90;;;;;;5079887;28;20054;-79
2023/01/14 08:44:52;;;;;;;19.88;1.73;;;10.50;99.90;;;;;;5113207;28;20044;-77
2023/01/14 08:47:19;;;;;;;11.07;1.63;;;10.80;99.90;;;;;;5114635;28;20047;-81
2023/01/14 08:49:47;;;;;;;15.02;1.88;;;11.20;99.90;;;;;;5114644;28;20040;-81
2023/01/14 08:52:14;;;;;;;11.15;1.40;;;10.50;99.90;;;;;;5095642;28;20475;-80
2023/01/14 08:54:45;;;;;;;14.60;1.50;;;10.50;99.90;;;;;;5096504;28;20145;-81
2023/01/14 08:57:12;;;;;;;17.02;2.92;;;10.90;99.90;;;;;;5113732;28;20468;-81
2023/01/14 08:59:40;;;;;;;11.55;1.17;;;10.50;99.90;;;;;;5114267;28;20376;-78
2023/01/14 09:02:13;;;;;;;10.63;1.30;;;11.20;99.90;;;;;;5096451;28;20036;-75
2023/01/14 09:04:41;;;;;;;9.32;1.20;;;10.60;99.90;;;;;;5095513;28;20047;-78
2023/01/14 09:18:12;;;;;;;5.28;0.70;;;10.80;99.90;;;;;;5117094;28;20048;-79
2023/01/14 09:20:40;;;;;;;11.70;0.80;;;10.80;99.90;;;;;;5118326;28;20047;-78
2023/01/14 09:23:09;;;;;;;6.65;0.80;;;10.80;99.90;;;;;;5093315;28;20039;-74
2023/01/14 09:25:37;;;;;;;8.13;0.80;;;10.80;99.90;;;;;;5098623;28;20048;-76
2023/01/14 09:28:05;;;;;;;4.95;0.68;;;10.90;99.90;;;;;;5113287;28;20032;-75
2023/01/14 09:30:32;;;;;;;5.22;0.85;;;10.90;99.90;;;;;;5116535;28;20040;-74
2023/01/14 09:33:01;;;;;;;9.82;1.17;;;10.90;99.90;;;;;;5118012;28;20044;-75
2023/01/14 09:35:29;;;;;;;10.55;0.90;;;11.10;99.90;;;;;;5100109;28;20047;-76
2023/01/14 09:37:57;;;;;;;8.07;0.80;;;11.20;99.90;;;;;;5099173;28;20066;-77
2023/01/14 09:40:24;;;;;;;10.23;1.00;;;11.00;99.90;;;;;;5117819;28;20055;-77
2023/01/14 09:42:52;;;;;;;5.80;0.70;;;11.00;99.90;;;;;;5117910;28;20360;-76
2023/01/14 09:45:30;;;;;;;5.05;0.55;;;11.00;99.90;;;;;;5098886;28;20043;-76
2023/01/14 09:48:06;;;;;;;;;;;11.10;99.90;;;;;;5100393;28;20480;-76
2023/01/14 09:51:02;;;;;;;5.35;0.55;;;11.10;99.90;;;;;;5081912;28;19934;-76
2023/01/14 09:53:59;;;;;;;5.97;0.90;;;11.10;99.90;;;;;;5117887;28;20047;-78
2023/01/14 09:56:49;;;;;;;6.03;0.93;;;11.10;99.90;;;;;;5099802;28;20502;-76
2023/01/14 09:59:40;;;;;;;5.93;0.70;;;11.20;99.90;;;;;;5069739;28;20048;-73
2023/01/14 10:02:25;;;;;;;4.85;0.77;;;11.10;99.90;;;;;;5117733;28;20048;-78
2023/01/14 10:05:02;;;;;;;7.40;0.90;;;11.20;99.90;;;;;;5116471;28;20042;-78
2023/01/14 10:07:30;;;;;;;8.30;1.00;;;11.20;99.90;;;;;;5117019;28;20039;-75
2023/01/14 10:09:58;;;;;;;5.25;0.70;;;11.30;99.90;;;;;;5117150;28;20047;-81
2023/01/14 10:12:34;;;;;;;6.07;0.73;;;11.30;99.90;;;;;;5098302;28;20043;-77
2023/01/14 10:15:25;;;;;;;4.32;0.68;;;11.50;99.90;;;;;;5082867;28;20048;-77
2023/01/14 10:18:05;;;;;;;4.88;0.50;;;11.30;99.90;;;;;;5100658;28;20063;-73
2023/01/14 10:20:49;;;;;;;8.32;0.70;;;11.30;99.90;;;;;;5117559;28;20051;-79
2023/01/14 10:23:21;;;;;;;4.22;0.50;;;11.30;99.90;;;;;;5116572;28;20383;-78
2023/01/14 10:25:51;;;;;;;3.88;0.63;;;11.30;99.90;;;;;;5115923;28;20044;-73
2023/01/14 10:28:23;;;;;;;3.13;0.40;;;11.30;99.90;;;;;;5099156;28;20044;-77
2023/01/14 10:30:51;;;;;;;4.38;0.43;;;11.30;99.90;;;;;;5115706;28;20122;-75
2023/01/14 10:33:22;;;;;;;7.38;0.90;;;11.30;99.90;;;;;;5098787;28;20047;-77
2023/01/14 10:36:04;;;;;;;6.18;0.70;;;11.40;99.90;;;;;;5116971;28;20051;-74
2023/01/14 10:38:32;;;;;;;8.77;0.93;;;11.40;99.90;;;;;;5114838;28;20047;-75
2023/01/14 10:41:05;;;;;;;7.40;0.80;;;11.40;99.90;;;;;;5098534;28;20043;-73
2023/01/14 10:43:51;;;;;;;7.72;0.93;;;11.50;99.90;;;;;;5116884;28;20050;-79
2023/01/14 10:46:21;;;;;;;4.70;0.70;;;11.50;99.90;;;;;;5098443;28;20054;-79
2023/01/14 10:49:10;;;;;;;8.32;0.82;;;11.50;99.90;;;;;;5098412;28;20047;-76
2023/01/14 10:51:47;;;;;;;4.88;0.70;;;11.50;99.90;;;;;;5115719;28;20467;-76
2023/01/14 10:54:20;;;;;;;4.32;0.68;;;11.60;99.90;;;;;;5095268;28;20050;-78
2023/01/14 10:57:05;;;;;;;7.10;0.70;;;11.60;99.90;;;;;;5116598;28;20058;-76
2023/01/14 10:59:39;;;;;;;3.13;0.77;;;11.50;99.90;;;;;;5097317;28;20048;-74
2023/01/14 11:02:20;;;;;;;4.18;0.60;;;11.70;99.90;;;;;;5082027;28;20356;-77
2023/01/14 11:04:49;;;;;;;6.60;0.65;;;11.60;99.90;;;;;;5097822;28;20051;-76
2023/01/14 11:07:39;;;;;;;4.50;0.60;;;11.60;99.90;;;;;;5081430;28;20055;-76
2023/01/14 11:10:21;;;;;;;9.10;0.60;;;11.60;99.90;;;;;;5115897;28;20052;-76
2023/01/14 11:12:50;;;;;;;5.45;0.75;;;11.60;99.90;;;;;;5114936;28;20059;-74
2023/01/14 11:15:36;;;;;;;3.15;0.43;;;11.60;99.90;;;;;;5098445;28;20058;-76
2023/01/14 11:18:19;;;;;;;5.88;0.60;;;11.60;99.90;;;;;;5093800;28;20070;-75
2023/01/14 11:21:10;;;;;;;3.10;0.57;;;11.60;99.90;;;;;;5116245;28;20039;-77
2023/01/14 11:23:52;;;;;;;2.95;0.40;;;11.70;99.90;;;;;;5098026;28;20043;-75
2023/01/14 11:26:26;;;;;;;2.90;0.30;;;11.70;99.90;;;;;;5115857;28;20043;-75
2023/01/14 11:29:14;;;;;;;3.22;0.45;;;11.70;99.90;;;;;;5080836;28;20044;-75
2023/01/14 11:31:43;;;;;;;;;;;11.70;99.90;;;;;;5115013;28;20456;-78
2023/01/14 11:34:29;;;;;;;2.08;0.30;;;11.70;99.90;;;;;;5114826;28;19919;-75
2023/01/14 11:37:18;;;;;;;2.45;0.40;;;11.70;99.90;;;;;;5115702;28;20055;-74
2023/01/14 11:39:57;;;;;;;2.88;0.50;;;11.80;99.90;;;;;;5097986;28;20396;-76
2023/01/14 11:42:40;;;;;;;3.35;0.40;;;11.70;99.90;;;;;;5081168;28;20051;-75
2023/01/14 11:45:10;;;;;;;4.65;0.50;;;11.70;99.90;;;;;;5096621;28;20051;-75
2023/01/14 11:48:21;;;;;;;2.53;0.50;;;11.80;99.90;;;;;;5097616;28;20050;-76
2023/01/14 11:51:19;;;;;;;3.40;0.63;;;11.80;99.90;;;;;;5096705;28;20051;-77
2023/01/14 11:53:50;;;;;;;0.70;0.28;;;11.80;99.90;;;;;;5097034;28;20074;-76
2023/01/14 11:56:36;;;;;;;4.90;0.50;;;11.80;99.90;;;;;;5115186;28;20048;-76
2023/01/14 11:59:32;;;;;;;2.45;0.40;;;11.80;99.90;;;;;;5114195;28;20058;-74
2023/01/14 12:02:09;;;;;;;2.13;0.60;;;11.80;99.90;;;;;;5112081;28;20051;-74
2023/01/14 12:04:53;;;;;;;2.97;0.50;;;11.90;99.90;;;;;;5114007;28;20043;-71
2023/01/14 12:07:45;;;;;;;2.65;0.73;;;11.80;99.90;;;;;;5090444;28;20044;-74
2023/01/14 12:10:22;;;;;;;1.33;0.30;;;11.80;99.90;;;;;;5094694;28;20055;-73
2023/01/14 12:19:02;;;;;;;4.38;0.40;;;11.80;99.90;;;;;;5093529;28;20044;-73
2023/01/14 12:21:39;;;;;;;0.85;0.30;;;11.90;99.90;;;;;;5094664;28;20048;-73
2023/01/14 12:24:16;;;;;;;3.67;0.40;;;11.90;99.90;;;;;;5093535;28;20047;-73
2023/01/14 12:26:46;;;;;;;2.55;0.50;;;11.90;99.90;;;;;;5077152;28;20040;-76
2023/01/14 12:29:29;;;;;;;3.33;0.40;;;11.90;99.90;;;;;;5094385;28;20036;-79
2023/01/14 12:32:12;;;;;;;2.42;0.40;;;11.90;99.90;;;;;;5075910;28;20461;-77
2023/01/14 12:34:48;;;;;;;2.92;0.55;;;11.90;99.90;;;;;;5094207;28;20048;-81
2023/01/14 12:37:18;;;;;;;1.52;0.40;;;11.80;99.90;;;;;;5059219;28;20059;-80
2023/01/14 12:45:45;;;;;;;1.70;0.60;;;11.80;99.90;;;;;;5093830;28;20056;-75
2023/01/14 12:48:18;;;;;;;4.40;0.70;;;11.80;99.90;;;;;;5098592;28;20044;-78
2023/01/14 12:50:58;;;;;;;0.98;0.47;;;11.70;99.90;;;;;;5097813;28;20122;-78
2023/01/14 12:53:28;;;;;;;1.85;0.40;;;11.70;99.90;;;;;;5064243;28;20048;-78
2023/01/14 12:56:00;;;;;;;2.35;0.90;;;11.70;99.90;;;;;;5098175;28;20059;-78
2023/01/14 12:58:35;;;;;;;4.13;0.40;;;11.60;99.90;;;;;;5088960;28;20067;-76
2023/01/14 13:01:05;;;;;;;2.22;0.55;;;11.50;99.90;;;;;;5098038;28;20077;-77
2023/01/14 13:03:52;;;;;;;2.05;0.68;;;11.40;99.90;;;;;;5059925;28;20041;-78
2023/01/14 13:06:27;;;;;;;1.42;0.40;;;11.30;99.90;;;;;;5026624;28;20045;-77
2023/01/14 13:08:57;;;;;;;2.25;0.77;;;12.60;99.90;;;;;;5097363;28;20044;-78
2023/01/14 13:11:28;;;;;;;1.95;0.47;;;11.30;99.90;;;;;;5078859;28;20059;-78
2023/01/14 13:14:05;;;;;;;3.08;0.52;;;11.10;99.90;;;;;;5097002;28;20051;-79
2023/01/14 13:16:41;;;;;;;3.03;0.50;;;12.30;99.90;;;;;;5097536;28;20043;-79
2023/01/14 13:19:47;;;;;;;5.43;0.70;;;11.00;99.90;;;;;;5096400;28;20376;-77
2023/01/14 13:22:43;;;;;;;3.28;0.90;;;10.90;99.90;;;;;;5058105;28;20052;-79
2023/01/14 13:25:31;;;;;;;5.57;1.00;;;10.90;99.90;;;;;;5096367;28;20067;-79
2023/01/14 13:28:01;;;;;;;3.22;0.60;;;10.90;99.90;;;;;;5084254;28;20047;-79
2023/01/14 13:30:28;;;;;;;4.95;1.00;;;10.80;99.90;;;;;;5083294;28;20491;-79
2023/01/14 13:32:59;;;;;;;5.47;1.27;;;10.80;99.90;;;;;;5117748;28;20055;-78
2023/01/14 13:35:31;;;;;;;6.57;1.13;;;12.60;99.90;;;;;;5083461;28;20050;-79
2023/01/14 13:38:19;;;;;;;3.10;0.70;;;10.80;99.90;;;;;;5116746;28;20050;-80
2023/01/14 13:40:52;;;;;;;5.47;0.80;;;10.80;99.90;;;;;;5117790;28;20040;-78
2023/01/14 13:43:24;;;;;;;2.97;0.70;;;10.90;99.90;;;;;;5117285;28;20044;-78
2023/01/14 13:45:56;;;;;;;2.08;0.60;;;10.80;99.90;;;;;;5116720;28;20039;-79
2023/01/14 13:48:30;;;;;;;5.68;0.90;;;10.90;99.90;;;;;;5117528;28;20039;-78
2023/01/14 13:51:17;;;;;;;3.95;0.70;;;10.80;99.90;;;;;;5105318;28;20040;-75
2023/01/14 13:54:07;;;;;;;6.75;0.98;;;10.80;99.90;;;;;;5083190;28;20059;-81
2023/01/14 13:56:51;;;;;;;6.95;1.00;;;11.20;99.90;;;;;;5099181;28;20403;-82
2023/01/14 13:59:25;;;;;;;8.52;1.23;;;10.70;99.90;;;;;;5115966;28;20040;-82